Time;durP1;ratioP1;P1;durP2;ratioP2;P2;SDS_P1;SDS_P2;PMS_P1;PMS_P2;Temp;Humidity;BMP_temperature;BMP_pressure;BME280_temperature;BME280_humidity;BME280_pressure;Samples;Min_cycle;Max_cycle;Signal;HPM_P1;HPM_P2
2023/08/20 00:02:08;;;;;;;10.80;3.60;;;;;;;18.27;94.27;101871.88;5286104;28;20036;-77
2023/08/20 00:04:42;;;;;;;8.07;3.50;;;;;;;18.19;94.20;101883.50;5285915;28;20753;-77
2023/08/20 00:07:15;;;;;;;6.32;2.83;;;;;;;18.16;94.96;101882.69;5285764;28;20058;-77
2023/08/20 00:09:46;;;;;;;11.73;3.95;;;;;;;18.04;95.32;101879.50;5285722;28;20033;-76
2023/08/20 00:12:18;;;;;;;7.70;3.43;;;;;;;18.09;95.67;101878.50;5285688;28;20377;-77
2023/08/20 00:15:04;;;;;;;7.27;3.10;;;;;;;18.06;96.88;101876.81;5285786;28;20399;-76
2023/08/20 00:17:38;;;;;;;9.68;2.88;;;;;;;17.97;96.46;101869.16;5285707;28;20033;-76
2023/08/20 00:20:12;;;;;;;9.25;3.40;;;;;;;17.93;96.70;101864.84;5285604;28;20028;-76
2023/08/20 00:22:45;;;;;;;8.60;3.60;;;;;;;17.81;96.64;101869.53;5285735;28;20060;-77
2023/08/20 00:25:17;;;;;;;10.05;3.75;;;;;;;17.77;96.59;101867.84;5285682;28;20040;-77
2023/08/20 00:27:48;;;;;;;8.02;3.80;;;;;;;17.81;96.65;101866.03;5267295;28;20039;-77
2023/08/20 00:30:20;;;;;;;8.93;3.97;;;;;;;17.68;96.69;101863.69;5285441;28;20032;-76
2023/08/20 00:32:51;;;;;;;8.73;3.13;;;;;;;17.78;96.78;101869.59;5285623;28;20032;-77
2023/08/20 00:35:23;;;;;;;9.03;3.23;;;;;;;17.69;96.66;101875.09;5285601;28;20109;-77
2023/08/20 00:37:54;;;;;;;9.27;4.23;;;;;;;17.74;97.27;101882.91;5285612;28;20033;-77
2023/08/20 00:40:25;;;;;;;9.97;3.53;;;;;;;17.95;96.84;101882.41;5285624;28;20505;-77
2023/08/20 00:42:57;;;;;;;10.53;3.47;;;;;;;17.99;96.60;101893.72;5285559;28;20542;-77
2023/08/20 00:45:28;;;;;;;9.63;3.50;;;;;;;17.86;96.66;101898.41;5287472;28;20476;-77
2023/08/20 00:47:59;;;;;;;8.33;3.70;;;;;;;17.85;96.75;101910.75;5285662;28;20499;-78
2023/08/20 00:50:31;;;;;;;8.53;3.20;;;;;;;17.92;97.39;101913.25;5285603;28;20033;-77
2023/08/20 00:53:03;;;;;;;10.80;3.50;;;;;;;17.83;97.83;101917.81;5285557;28;20484;-78
2023/08/20 00:55:35;;;;;;;8.60;3.97;;;;;;;17.93;97.67;101917.63;5285409;28;20472;-79
2023/08/20 00:58:07;;;;;;;10.35;3.97;;;;;;;17.88;97.83;101914.25;5267669;28;20060;-76
2023/08/20 01:00:38;;;;;;;9.40;3.10;;;;;;;17.94;97.63;101922.00;5287384;28;20167;-76
2023/08/20 01:03:10;;;;;;;7.83;3.10;;;;;;;17.90;98.20;101925.59;5267387;28;20033;-77
2023/08/20 01:05:53;;;;;;;12.80;3.70;;;;;;;17.99;98.46;101941.22;5288194;28;20471;-77
2023/08/20 01:08:40;;;;;;;7.85;2.90;;;;;;;18.04;98.16;101941.97;5288180;28;20078;-76
2023/08/20 01:11:24;;;;;;;9.18;2.50;;;;;;;18.21;97.62;101952.94;5287334;28;20028;-76
2023/08/20 01:13:58;;;;;;;9.90;3.50;;;;;;;18.30;97.23;101951.81;5287399;28;20107;-76
2023/08/20 01:16:29;;;;;;;7.95;2.88;;;;;;;18.36;96.87;101956.09;5288057;28;20052;-76
2023/08/20 01:19:01;;;;;;;8.10;2.90;;;;;;;18.51;97.78;101952.16;5287709;28;20113;-77
2023/08/20 01:21:56;;;;;;;8.77;3.70;;;;;;;18.47;95.79;101956.66;5286850;28;20362;-76
2023/08/20 01:24:27;;;;;;;9.30;4.07;;;;;;;18.60;95.64;101936.06;5286581;28;20035;-75
2023/08/20 01:27:04;;;;;;;8.67;3.53;;;;;;;18.58;95.09;101930.81;5287026;28;20032;-76
2023/08/20 01:29:37;;;;;;;13.63;4.90;;;;;;;18.47;95.95;101937.31;5288373;28;20024;-76
2023/08/20 01:32:11;;;;;;;8.40;2.70;;;;;;;18.53;95.37;101945.94;5287683;28;20064;-76
2023/08/20 01:34:43;;;;;;;8.95;3.60;;;;;;;18.67;94.65;101940.25;5287468;28;20025;-75
2023/08/20 01:37:14;;;;;;;10.77;3.27;;;;;;;18.68;94.82;101934.06;5288741;28;20078;-77
2023/08/20 01:39:46;;;;;;;10.23;3.67;;;;;;;18.68;95.07;101927.94;5288181;28;20065;-78
2023/08/20 01:42:18;;;;;;;7.00;3.20;;;;;;;18.74;94.97;101938.31;5288849;28;20058;-77
2023/08/20 01:44:49;;;;;;;7.28;2.88;;;;;;;18.72;95.16;101940.13;5290270;28;20102;-77
2023/08/20 01:47:20;;;;;;;10.13;3.77;;;;;;;18.76;95.32;101933.84;5289629;28;20032;-77
2023/08/20 01:49:52;;;;;;;8.43;3.13;;;;;;;18.82;95.03;101941.63;5288839;28;20142;-78
2023/08/20 01:52:23;;;;;;;7.83;3.20;;;;;;;18.80;95.76;101932.00;5288491;28;20036;-76
2023/08/20 01:54:55;;;;;;;14.00;3.33;;;;;;;18.77;95.21;101941.75;5288845;28;20032;-77
2023/08/20 01:57:26;;;;;;;11.02;3.72;;;;;;;18.77;94.20;101943.50;5287478;28;20092;-76
2023/08/20 01:59:58;;;;;;;7.47;3.23;;;;;;;18.84;94.00;101947.75;5287373;28;20028;-76
2023/08/20 02:02:29;;;;;;;7.53;3.33;;;;;;;18.92;93.45;101950.16;5286763;28;20108;-77
2023/08/20 02:05:01;;;;;;;7.40;3.47;;;;;;;18.82;93.18;101961.84;5286572;28;20472;-76
2023/08/20 02:07:32;;;;;;;15.07;3.87;;;;;;;18.79;92.73;101965.47;5285196;28;20507;-76
2023/08/20 02:10:04;;;;;;;7.53;2.97;;;;;;;18.84;92.63;101966.22;5284782;28;20033;-77
2023/08/20 02:12:35;;;;;;;9.82;3.67;;;;;;;18.82;93.02;101964.50;5284545;28;20020;-77
2023/08/20 02:15:08;;;;;;;10.60;3.53;;;;;;;18.81;94.42;101968.06;5283856;28;20379;-78
2023/08/20 02:17:39;;;;;;;;;;;;;;;18.91;93.16;101962.50;5285030;28;20107;-79
2023/08/20 02:20:11;;;;;;;7.67;2.97;;;;;;;18.68;95.31;101964.91;5284429;28;20015;-77
2023/08/20 02:22:42;;;;;;;7.17;3.70;;;;;;;18.63;95.92;101972.06;5283674;28;20032;-77
2023/08/20 02:25:13;;;;;;;8.53;3.27;;;;;;;18.63;96.57;101969.44;5283465;28;20040;-77
2023/08/20 02:27:45;;;;;;;6.67;3.50;;;;;;;18.58;96.93;101974.88;5283387;28;20089;-77
2023/08/20 02:30:16;;;;;;;8.13;3.30;;;;;;;18.54;97.08;101970.56;5265824;28;20058;-77
2023/08/20 02:32:47;;;;;;;8.33;3.30;;;;;;;18.37;97.00;101976.28;5283305;28;20024;-78
2023/08/20 02:35:19;;;;;;;7.97;4.07;;;;;;;18.38;98.03;101967.47;5283319;28;20029;-76
2023/08/20 02:37:50;;;;;;;9.77;3.80;;;;;;;18.38;98.06;101960.41;5283443;28;20025;-77
2023/08/20 02:40:22;;;;;;;10.07;3.60;;;;;;;18.18;98.88;101957.44;5283445;28;20115;-76
2023/08/20 02:42:53;;;;;;;12.50;3.93;;;;;;;18.13;99.14;101952.28;5283498;28;20032;-77
2023/08/20 02:45:25;;;;;;;7.90;2.73;;;;;;;17.99;99.55;101954.41;5282933;28;20076;-77
2023/08/20 02:47:56;;;;;;;10.23;3.42;;;;;;;17.92;100.00;101955.44;5283350;28;20449;-78
2023/08/20 02:50:28;;;;;;;7.83;3.47;;;;;;;17.84;100.00;101959.13;5283628;28;20115;-77
2023/08/20 02:52:59;;;;;;;6.00;2.90;;;;;;;17.77;100.00;101949.59;5283000;28;20025;-77
2023/08/20 02:55:31;;;;;;;6.50;3.23;;;;;;;17.65;100.00;101950.78;5283207;28;20042;-77
2023/08/20 02:58:03;;;;;;;8.93;2.85;;;;;;;17.54;100.00;101955.44;5282831;28;20029;-76
2023/08/20 03:00:36;;;;;;;9.38;3.33;;;;;;;17.43;100.00;101946.91;5279980;28;20064;-76
2023/08/20 03:03:08;;;;;;;9.07;4.22;;;;;;;17.37;100.00;101949.69;5274010;28;20032;-77
2023/08/20 03:05:39;;;;;;;8.48;4.05;;;;;;;17.27;100.00;101952.50;5272577;28;20104;-76
2023/08/20 03:08:11;;;;;;;8.80;3.37;;;;;;;17.19;100.00;101946.56;5271356;28;20126;-78
2023/08/20 03:10:42;;;;;;;7.97;3.37;;;;;;;17.20;100.00;101943.03;5273204;28;20270;-78
2023/08/20 03:13:14;;;;;;;8.20;3.70;;;;;;;17.08;100.00;101949.44;5283181;28;20029;-77
2023/08/20 03:15:45;;;;;;;7.60;3.07;;;;;;;17.04;100.00;101946.91;5283137;28;20034;-77
2023/08/20 03:18:16;;;;;;;6.93;3.00;;;;;;;16.99;100.00;101941.72;5283174;28;20059;-76
2023/08/20 03:20:48;;;;;;;8.63;3.73;;;;;;;16.88;100.00;101943.72;5282979;28;20082;-76
2023/08/20 03:23:19;;;;;;;10.37;4.10;;;;;;;16.83;100.00;101945.56;5283013;28;20025;-77
2023/08/20 03:25:50;;;;;;;7.60;3.57;;;;;;;16.81;100.00;101937.69;5282782;28;20064;-77
2023/08/20 03:28:22;;;;;;;10.20;3.77;;;;;;;16.73;100.00;101940.47;5286141;28;20028;-77
2023/08/20 03:30:53;;;;;;;8.47;3.30;;;;;;;16.61;100.00;101951.22;5286599;28;20025;-78
2023/08/20 03:33:24;;;;;;;11.90;4.03;;;;;;;16.64;100.00;101939.78;5286907;28;20036;-77
2023/08/20 03:35:56;;;;;;;8.63;3.27;;;;;;;16.56;100.00;101947.81;5286706;28;20113;-77
2023/08/20 03:38:27;;;;;;;10.60;4.03;;;;;;;16.52;100.00;101940.91;5286649;28;20041;-78
2023/08/20 03:40:59;;;;;;;11.37;3.37;;;;;;;16.47;100.00;101940.09;5286638;28;20035;-76
2023/08/20 03:43:30;;;;;;;8.57;3.60;;;;;;;16.47;100.00;101946.25;5286554;28;20033;-76
2023/08/20 03:46:02;;;;;;;8.57;3.67;;;;;;;16.45;100.00;101944.53;5286407;28;20420;-77
2023/08/20 03:48:33;;;;;;;10.15;3.53;;;;;;;16.37;100.00;101942.03;5251969;28;20039;-77
2023/08/20 03:51:05;;;;;;;8.57;3.53;;;;;;;16.36;100.00;101942.94;5286158;28;20391;-77
2023/08/20 03:53:36;;;;;;;8.83;3.73;;;;;;;16.28;100.00;101947.47;5268591;28;20059;-77
2023/08/20 03:56:07;;;;;;;8.97;3.27;;;;;;;16.33;100.00;101956.16;5286357;28;20032;-77
2023/08/20 03:58:39;;;;;;;10.33;3.50;;;;;;;16.30;100.00;101957.06;5285850;28;20064;-77
2023/08/20 04:01:10;;;;;;;9.10;4.47;;;;;;;16.21;100.00;101957.22;5268081;28;20017;-76
2023/08/20 04:03:42;;;;;;;11.30;4.17;;;;;;;16.21;100.00;101960.75;5286256;28;20032;-78
2023/08/20 04:06:13;;;;;;;10.00;3.23;;;;;;;16.20;100.00;101966.88;5286199;28;20090;-77
2023/08/20 04:08:45;;;;;;;9.68;3.45;;;;;;;16.15;100.00;101967.88;5286112;28;20032;-77
2023/08/20 04:11:16;;;;;;;9.07;4.00;;;;;;;16.06;100.00;101976.78;5286008;28;20056;-78
2023/08/20 04:13:48;;;;;;;10.77;3.70;;;;;;;16.09;100.00;101974.09;5286036;28;20086;-76
2023/08/20 04:16:19;;;;;;;8.17;3.43;;;;;;;16.06;100.00;101976.78;5285566;28;20037;-77
2023/08/20 04:18:51;;;;;;;6.65;3.47;;;;;;;16.04;100.00;101973.31;5285433;28;20561;-77
2023/08/20 04:21:22;;;;;;;9.17;3.30;;;;;;;15.99;100.00;101972.53;5285877;28;20032;-77
2023/08/20 04:23:53;;;;;;;8.53;3.30;;;;;;;15.95;100.00;101974.31;5286107;28;20067;-77
2023/08/20 04:26:25;;;;;;;8.43;3.67;;;;;;;15.87;100.00;101981.47;5285798;28;20117;-77
2023/08/20 04:28:56;;;;;;;8.40;3.03;;;;;;;15.87;100.00;101976.19;5285133;28;20032;-76
2023/08/20 04:31:27;;;;;;;11.23;4.13;;;;;;;15.85;100.00;101980.63;5285684;28;20036;-77
2023/08/20 04:33:59;;;;;;;8.70;3.50;;;;;;;15.82;100.00;101981.53;5285605;28;20425;-77
2023/08/20 04:36:30;;;;;;;10.00;3.53;;;;;;;15.77;100.00;101987.75;5285670;28;20017;-77
2023/08/20 04:39:02;;;;;;;7.77;3.80;;;;;;;15.79;100.00;101985.97;5285133;28;20028;-77
2023/08/20 04:41:33;;;;;;;8.95;3.80;;;;;;;15.73;100.00;101993.91;5285071;28;20408;-76
2023/08/20 04:44:05;;;;;;;14.50;5.30;;;;;;;15.80;100.00;101990.34;5285223;28;20557;-76
2023/08/20 04:46:36;;;;;;;8.37;3.83;;;;;;;15.76;100.00;101980.72;5285566;28;20400;-76
2023/08/20 04:49:08;;;;;;;6.90;3.80;;;;;;;15.79;100.00;101975.44;5285400;28;20036;-77
2023/08/20 04:51:39;;;;;;;7.03;3.30;;;;;;;15.77;100.00;101982.50;5285788;28;20048;-76
2023/08/20 04:54:10;;;;;;;5.67;3.13;;;;;;;15.70;100.00;101984.34;5285021;28;20125;-76
2023/08/20 04:56:42;;;;;;;6.00;3.73;;;;;;;15.69;100.00;101979.94;5267290;28;20028;-76
2023/08/20 04:59:13;;;;;;;10.70;3.93;;;;;;;15.77;100.00;101991.25;5284388;28;20119;-77
2023/08/20 05:01:45;;;;;;;8.77;3.80;;;;;;;15.83;100.00;101993.78;5285083;28;20503;-77
2023/08/20 05:04:16;;;;;;;6.10;3.23;;;;;;;15.85;100.00;101997.25;5284885;28;20029;-76
2023/08/20 05:06:47;;;;;;;7.33;3.30;;;;;;;15.90;100.00;101991.94;5284638;28;20032;-77
2023/08/20 05:09:19;;;;;;;5.97;3.77;;;;;;;15.85;100.00;101989.38;5284972;28;20119;-77
2023/08/20 05:11:50;;;;;;;8.07;3.03;;;;;;;15.92;100.00;101997.16;5284863;28;20028;-77
2023/08/20 05:14:21;;;;;;;7.60;3.07;;;;;;;16.00;100.00;101998.81;5284844;28;20032;-76
2023/08/20 05:16:53;;;;;;;7.30;3.83;;;;;;;16.01;100.00;101992.63;5285025;28;20029;-76
2023/08/20 05:19:24;;;;;;;11.87;4.20;;;;;;;15.99;100.00;101994.41;5266736;28;20480;-77
2023/08/20 05:21:58;;;;;;;7.17;3.47;;;;;;;16.05;100.00;101993.44;5284783;28;20420;-77
2023/08/20 05:24:30;;;;;;;8.70;4.25;;;;;;;16.09;100.00;102002.16;5284270;28;20029;-77
2023/08/20 05:27:16;;;;;;;7.67;3.87;;;;;;;16.09;100.00;102005.66;5266563;28;20039;-77
2023/08/20 05:29:47;;;;;;;9.88;3.88;;;;;;;16.16;100.00;102012.53;5267092;28;20471;-76
2023/08/20 05:32:18;;;;;;;7.47;3.90;;;;;;;16.21;100.00;102008.09;5266265;28;20051;-76
2023/08/20 05:34:50;;;;;;;9.90;4.70;;;;;;;16.26;100.00;102013.28;5284507;28;20081;-76
2023/08/20 05:37:21;;;;;;;10.97;4.63;;;;;;;16.28;100.00;102008.84;5249915;28;20127;-77
2023/08/20 05:39:53;;;;;;;10.53;5.40;;;;;;;16.42;100.00;102019.13;5284047;28;20620;-76
2023/08/20 05:42:24;;;;;;;8.65;4.80;;;;;;;16.44;100.00;102016.47;5284381;28;20036;-78
2023/08/20 05:44:56;;;;;;;11.03;5.07;;;;;;;16.52;100.00;102007.56;5266088;28;20052;-76
2023/08/20 05:47:27;;;;;;;11.60;5.40;;;;;;;16.55;100.00;102009.25;5284448;28;20051;-77
2023/08/20 05:49:58;;;;;;;10.60;5.63;;;;;;;16.68;100.00;102012.53;5283435;28;20115;-77
2023/08/20 05:52:30;;;;;;;13.97;5.50;;;;;;;16.71;100.00;102012.47;5283720;28;20028;-75
2023/08/20 05:55:01;;;;;;;10.33;4.93;;;;;;;16.85;100.00;102017.47;5266067;28;20029;-77
2023/08/20 05:57:32;;;;;;;8.90;4.50;;;;;;;16.88;100.00;102020.94;5283590;28;20050;-76
2023/08/20 06:00:05;;;;;;;9.03;4.67;;;;;;;16.98;100.00;102024.28;5284089;28;20032;-76
2023/08/20 06:02:37;;;;;;;12.02;4.72;;;;;;;17.06;100.00;102022.34;5283760;28;20037;-76
2023/08/20 06:05:09;;;;;;;12.05;5.53;;;;;;;17.15;100.00;102016.03;5284101;28;20452;-75
2023/08/20 06:07:41;;;;;;;12.88;5.65;;;;;;;17.26;100.00;102008.78;5283697;28;20110;-77
2023/08/20 06:10:12;;;;;;;13.10;6.23;;;;;;;17.41;100.00;102012.84;5283779;28;20107;-77
2023/08/20 06:12:43;;;;;;;11.37;5.93;;;;;;;17.47;100.00;102011.84;5265792;28;20480;-77
2023/08/20 06:15:15;;;;;;;11.27;4.30;;;;;;;17.50;100.00;102014.44;5283820;28;20036;-76
2023/08/20 06:17:46;;;;;;;16.10;4.57;;;;;;;17.68;100.00;102013.13;5283590;28;20054;-78
2023/08/20 06:20:18;;;;;;;12.17;4.70;;;;;;;17.77;100.00;102022.59;5283721;28;20032;-76
2023/08/20 06:22:50;;;;;;;10.50;4.68;;;;;;;17.90;100.00;102021.44;5283625;28;20033;-76
2023/08/20 06:25:21;;;;;;;13.23;4.68;;;;;;;17.93;100.00;102021.34;5283322;28;20550;-76
2023/08/20 06:27:53;;;;;;;12.27;3.87;;;;;;;18.04;100.00;102016.69;5283209;28;20484;-84
2023/08/20 06:30:24;;;;;;;10.83;4.13;;;;;;;18.17;99.96;102025.16;5265563;28;20044;-79
2023/08/20 06:32:55;;;;;;;11.73;4.20;;;;;;;18.29;97.46;102025.75;5283195;28;20449;-78
2023/08/20 06:35:27;;;;;;;11.27;3.87;;;;;;;18.36;97.46;102032.66;5283474;28;20417;-78
2023/08/20 06:37:58;;;;;;;13.17;4.47;;;;;;;18.49;96.13;102027.91;5283158;28;20078;-78
2023/08/20 06:40:30;;;;;;;13.57;4.40;;;;;;;18.49;95.05;102035.84;5283130;28;20036;-78
2023/08/20 06:43:01;;;;;;;10.40;3.88;;;;;;;18.56;95.96;102033.00;5265584;28;20093;-79
2023/08/20 06:45:33;;;;;;;9.83;3.60;;;;;;;18.59;95.72;102032.91;5283558;28;20431;-80
2023/08/20 06:48:05;;;;;;;9.47;3.97;;;;;;;18.71;94.65;102033.50;5283725;28;20040;-80
2023/08/20 06:50:36;;;;;;;12.73;4.47;;;;;;;18.81;95.11;102034.13;5283588;28;20064;-78
2023/08/20 06:53:08;;;;;;;20.40;7.70;;;;;;;18.91;93.83;102038.25;5270624;28;20516;-80
2023/08/20 06:55:39;;;;;;;14.07;5.03;;;;;;;18.97;92.92;102039.88;5260841;28;20032;-80
2023/08/20 06:58:11;;;;;;;14.93;4.80;;;;;;;18.91;93.34;102030.31;5261417;28;20051;-78
2023/08/20 07:00:42;;;;;;;11.93;5.10;;;;;;;19.00;91.84;102029.19;5282053;28;20032;-78
2023/08/20 07:03:13;;;;;;;13.00;5.90;;;;;;;19.11;90.91;102029.75;5286858;28;20210;-79
2023/08/20 07:05:45;;;;;;;8.93;5.20;;;;;;;19.13;88.74;102036.75;5285762;28;20032;-79
2023/08/20 07:08:16;;;;;;;15.23;5.07;;;;;;;19.16;90.30;102037.56;5285721;28;20029;-79
2023/08/20 07:10:48;;;;;;;8.57;4.97;;;;;;;19.27;87.62;102046.91;5282983;28;20028;-79
2023/08/20 07:13:19;;;;;;;11.47;4.53;;;;;;;19.31;86.61;102048.53;5266908;28;20037;-79
2023/08/20 07:15:51;;;;;;;10.77;4.33;;;;;;;19.37;86.46;102043.97;5267647;28;20419;-79
2023/08/20 07:18:22;;;;;;;9.90;4.57;;;;;;;19.42;86.05;102042.94;5269000;28;20029;-79
2023/08/20 07:20:55;;;;;;;9.50;4.03;;;;;;;19.51;85.74;102049.72;5277629;28;20033;-81
2023/08/20 07:23:26;;;;;;;12.25;4.47;;;;;;;19.57;85.73;102040.75;5275429;28;20079;-78
2023/08/20 07:26:06;;;;;;;10.37;4.30;;;;;;;19.70;85.04;102042.09;5270403;28;20025;-78
2023/08/20 07:28:56;;;;;;;9.75;4.57;;;;;;;19.77;84.60;102041.06;5269206;28;20371;-80
2023/08/20 07:31:30;;;;;;;11.57;5.50;;;;;;;19.84;84.97;102055.81;5297541;28;20017;-79
2023/08/20 07:34:02;;;;;;;9.10;4.82;;;;;;;19.95;83.96;102050.19;5282196;28;20112;-76
2023/08/20 07:36:34;;;;;;;9.43;3.63;;;;;;;19.98;83.36;102046.53;5285329;28;20016;-77
2023/08/20 07:39:05;;;;;;;8.60;4.67;;;;;;;20.07;83.79;102048.06;5289173;28;20024;-78
2023/08/20 07:41:37;;;;;;;10.07;4.80;;;;;;;20.17;81.85;102050.34;5276365;28;20029;-78
2023/08/20 07:44:08;;;;;;;14.53;5.17;;;;;;;20.32;83.13;102054.28;5265429;28;20029;-78
2023/08/20 07:46:39;;;;;;;11.30;4.40;;;;;;;20.38;81.65;102047.88;5269200;28;20048;-79
2023/08/20 07:49:11;;;;;;;12.20;4.23;;;;;;;20.47;81.22;102054.66;5286109;28;20115;-81
2023/08/20 07:51:42;;;;;;;8.80;4.63;;;;;;;20.55;80.23;102058.78;5267633;28;20479;-79
2023/08/20 07:54:14;;;;;;;9.27;4.20;;;;;;;20.59;78.14;102065.72;5286233;28;20035;-79
2023/08/20 07:56:45;;;;;;;11.60;4.72;;;;;;;20.71;78.93;102067.09;5252186;28;20030;-80
2023/08/20 07:59:16;;;;;;;9.30;4.30;;;;;;;20.75;78.15;102060.78;5283390;28;20047;-80
2023/08/20 08:01:48;;;;;;;12.50;5.33;;;;;;;20.84;78.14;102071.97;5286017;28;20412;-80
2023/08/20 08:04:19;;;;;;;11.38;5.07;;;;;;;20.97;77.87;102067.94;5267374;28;20125;-80
2023/08/20 08:06:51;;;;;;;9.30;4.57;;;;;;;21.06;78.69;102067.63;5284795;28;20445;-79
2023/08/20 08:09:32;;;;;;;9.23;5.63;;;;;;;21.19;78.34;102072.44;5284963;28;20461;-80
2023/08/20 08:12:04;;;;;;;9.20;4.53;;;;;;;21.25;76.47;102064.28;5284809;28;20094;-79
2023/08/20 08:14:35;;;;;;;;;;;;;;;21.30;75.19;102076.44;5268347;28;20051;-80
2023/08/20 08:17:07;;;;;;;7.83;4.03;;;;;;;21.27;73.61;102073.06;5287019;28;19912;-80
2023/08/20 08:19:38;;;;;;;9.80;4.63;;;;;;;21.37;74.12;102077.09;5286010;28;20124;-80
2023/08/20 08:22:10;;;;;;;9.43;4.27;;;;;;;21.36;72.65;102080.66;5286921;28;20492;-81
2023/08/20 08:24:42;;;;;;;7.57;3.57;;;;;;;21.60;74.87;102075.38;5285714;28;20074;-79
2023/08/20 08:27:13;;;;;;;8.32;3.60;;;;;;;21.58;71.26;102078.09;5285796;28;20035;-79
2023/08/20 08:29:45;;;;;;;5.30;3.17;;;;;;;21.66;72.45;102083.09;5284784;28;20479;-80
2023/08/20 08:32:16;;;;;;;9.33;3.97;;;;;;;21.71;69.95;102082.94;5285461;28;20028;-80
2023/08/20 08:34:48;;;;;;;7.70;3.80;;;;;;;21.83;69.90;102079.78;5285011;28;20387;-80
2023/08/20 08:37:19;;;;;;;11.07;5.03;;;;;;;21.76;68.12;102083.59;5284932;28;20102;-80
2023/08/20 08:39:50;;;;;;;10.15;3.30;;;;;;;22.02;68.10;102082.56;5266622;28;20388;-79
2023/08/20 08:42:23;;;;;;;7.57;2.87;;;;;;;22.02;67.12;102078.13;5285018;28;20021;-80
2023/08/20 08:44:56;;;;;;;8.55;3.60;;;;;;;22.27;66.59;102090.41;5284508;28;20060;-79
2023/08/20 08:47:27;;;;;;;;;;;;;;;22.47;68.20;102094.03;5285615;28;20059;-79
2023/08/20 08:49:59;;;;;;;9.40;3.60;;;;;;;22.39;65.03;102091.69;5284776;28;19908;-80
2023/08/20 08:52:31;;;;;;;7.63;3.90;;;;;;;22.53;64.83;102091.13;5285262;28;20032;-80
2023/08/20 08:55:04;;;;;;;5.68;2.15;;;;;;;22.62;62.38;102096.06;5266830;28;20480;-79
2023/08/20 08:57:37;;;;;;;5.05;2.47;;;;;;;22.80;61.95;102093.50;5284354;28;20129;-81
2023/08/20 09:00:09;;;;;;;5.97;2.55;;;;;;;22.85;59.36;102094.19;5284379;28;20033;-81
2023/08/20 09:02:41;;;;;;;6.50;2.08;;;;;;;23.00;58.87;102095.31;5285007;28;20028;-78
2023/08/20 09:05:15;;;;;;;6.93;2.40;;;;;;;23.17;61.21;102095.47;5284456;28;20080;-80
2023/08/20 09:07:46;;;;;;;7.50;3.58;;;;;;;23.43;58.59;102099.59;5284932;28;20036;-79
2023/08/20 09:10:18;;;;;;;7.73;2.57;;;;;;;23.40;58.55;102096.22;5283587;28;20037;-79
2023/08/20 09:12:49;;;;;;;7.63;2.70;;;;;;;23.52;59.14;102094.75;5284763;28;20024;-79
2023/08/20 09:15:21;;;;;;;5.43;2.20;;;;;;;23.76;58.89;102095.41;5284188;28;20040;-80
2023/08/20 09:17:52;;;;;;;5.50;2.53;;;;;;;23.62;57.07;102099.59;5284838;28;20124;-79
2023/08/20 09:20:37;;;;;;;9.00;2.37;;;;;;;23.69;53.61;102094.84;5283602;28;20039;-79
2023/08/20 09:23:15;;;;;;;5.07;2.05;;;;;;;23.69;54.45;102094.00;5284271;28;20085;-82
2023/08/20 09:25:46;;;;;;;6.38;2.55;;;;;;;24.02;55.52;102095.06;5283127;28;20036;-79
2023/08/20 09:28:17;;;;;;;4.17;1.80;;;;;;;23.89;53.41;102095.72;5283880;28;20377;-80
2023/08/20 09:31:02;;;;;;;3.43;1.80;;;;;;;24.32;52.04;102101.59;5283536;28;20390;-81
2023/08/20 09:33:33;;;;;;;5.63;1.80;;;;;;;25.52;52.33;102091.81;5284698;28;20024;-79
2023/08/20 09:36:07;;;;;;;4.85;1.65;;;;;;;26.63;47.05;102107.75;5266399;28;20094;-79
2023/08/20 09:38:38;;;;;;;3.85;1.88;;;;;;;27.05;43.97;102102.59;5266292;28;20025;-78
2023/08/20 09:41:12;;;;;;;4.13;1.50;;;;;;;28.12;42.71;102092.19;5283481;28;20029;-80
2023/08/20 09:43:44;;;;;;;3.47;1.55;;;;;;;28.63;38.84;102093.31;5283992;28;20032;-78
2023/08/20 09:46:19;;;;;;;3.40;1.35;;;;;;;29.52;40.87;102097.75;5283495;28;20052;-80
2023/08/20 09:48:57;;;;;;;5.60;1.60;;;;;;;30.26;38.76;102097.69;5284162;28;20405;-80
2023/08/20 09:51:33;;;;;;;4.07;2.03;;;;;;;30.22;36.09;102098.03;5283392;28;20036;-81
2023/08/20 09:54:21;;;;;;;3.97;1.83;;;;;;;30.85;38.77;102104.00;5283534;28;20051;-79
2023/08/20 09:56:58;;;;;;;3.20;1.38;;;;;;;30.94;35.24;102097.88;5284016;28;20029;-81
2023/08/20 09:59:30;;;;;;;4.47;1.63;;;;;;;31.30;34.32;102097.78;5282689;28;20120;-79
2023/08/20 10:02:01;;;;;;;3.97;2.08;;;;;;;31.61;33.78;102098.88;5265995;28;20511;-78
2023/08/20 10:04:33;;;;;;;2.72;1.30;;;;;;;31.85;32.62;102097.81;5283065;28;20021;-78
2023/08/20 10:07:05;;;;;;;3.22;1.40;;;;;;;31.29;32.88;102093.41;5283956;28;20045;-78
2023/08/20 10:09:39;;;;;;;2.53;1.30;;;;;;;31.96;34.22;102090.56;5282819;28;20476;-79
2023/08/20 10:12:11;;;;;;;3.55;1.73;;;;;;;32.32;32.04;102085.75;5272332;28;20091;-80
2023/08/20 10:14:42;;;;;;;4.30;1.75;;;;;;;32.54;31.37;102098.28;5248272;28;20067;-81
2023/08/20 10:17:15;;;;;;;2.10;1.45;;;;;;;32.11;31.14;102098.41;5264904;28;20025;-79
2023/08/20 10:19:47;;;;;;;3.78;1.40;;;;;;;31.87;31.14;102099.41;5262229;28;20064;-80
2023/08/20 10:22:18;;;;;;;3.20;1.80;;;;;;;32.81;30.69;102098.75;5262412;28;20057;-79
2023/08/20 10:24:52;;;;;;;3.92;1.65;;;;;;;32.93;29.46;102094.13;5244827;28;20033;-79
2023/08/20 10:27:26;;;;;;;4.22;1.67;;;;;;;32.71;30.09;102094.13;5244669;28;20033;-79
2023/08/20 10:30:01;;;;;;;6.63;2.10;;;;;;;31.86;30.82;102095.00;5262637;28;20036;-79
2023/08/20 10:32:49;;;;;;;4.10;1.77;;;;;;;32.87;31.46;102096.34;5262522;28;20358;-80
2023/08/20 10:35:37;;;;;;;3.95;1.70;;;;;;;32.96;31.23;102088.44;5244331;28;20036;-78
2023/08/20 10:38:16;;;;;;;2.83;1.40;;;;;;;33.64;28.87;102102.22;5262593;28;20051;-78
2023/08/20 10:40:55;;;;;;;3.72;1.73;;;;;;;33.11;29.11;102100.59;5262585;28;20412;-79
2023/08/20 10:43:40;;;;;;;3.22;1.67;;;;;;;34.30;27.57;102095.31;5262308;28;20481;-78
2023/08/20 10:46:18;;;;;;;2.17;1.30;;;;;;;33.80;28.38;102094.44;5262380;28;20118;-79
2023/08/20 10:49:06;;;;;;;3.42;1.40;;;;;;;35.31;28.23;102097.47;5262618;28;20036;-80
2023/08/20 10:51:37;;;;;;;3.33;1.60;;;;;;;35.41;26.76;102090.16;5262901;28;20029;-78
2023/08/20 10:54:10;;;;;;;3.50;1.55;;;;;;;34.67;25.78;102089.97;5262515;28;20099;-80
2023/08/20 10:56:46;;;;;;;3.08;1.60;;;;;;;34.00;26.06;102093.59;5262703;28;20496;-80
2023/08/20 10:59:21;;;;;;;4.15;1.60;;;;;;;34.10;26.33;102086.31;5262029;28;20100;-80
2023/08/20 11:01:55;;;;;;;5.78;1.52;;;;;;;33.96;26.00;102090.31;5262367;28;20490;-79
2023/08/20 11:04:33;;;;;;;3.17;1.60;;;;;;;34.47;26.93;102091.00;5261984;28;20087;-80
2023/08/20 11:07:05;;;;;;;4.60;1.70;;;;;;;34.98;25.27;102097.03;5262006;28;20485;-79
2023/08/20 11:09:39;;;;;;;3.88;1.77;;;;;;;35.79;24.63;102090.91;5262270;28;20121;-80
2023/08/20 11:12:10;;;;;;;5.40;2.30;;;;;;;35.24;23.45;102098.09;5262560;28;20091;-80
2023/08/20 11:14:42;;;;;;;3.92;1.80;;;;;;;35.56;25.20;102091.31;5244312;28;20041;-78
2023/08/20 11:17:13;;;;;;;4.25;1.50;;;;;;;36.20;23.67;102088.56;5262273;28;20029;-80
2023/08/20 11:19:45;;;;;;;4.85;2.10;;;;;;;36.60;23.52;102079.03;5261861;28;20060;-81
2023/08/20 11:22:18;;;;;;;3.92;1.88;;;;;;;36.79;24.49;102082.56;5262100;28;20082;-79
2023/08/20 11:24:50;;;;;;;3.38;1.65;;;;;;;36.17;22.68;102083.44;5261730;28;20037;-79
2023/08/20 11:27:26;;;;;;;4.25;1.67;;;;;;;36.47;23.91;102089.47;5262058;28;20120;-79
2023/08/20 11:29:58;;;;;;;3.42;1.83;;;;;;;35.72;23.67;102084.38;5262092;28;20483;-78
2023/08/20 11:32:31;;;;;;;3.80;1.83;;;;;;;36.64;23.73;102076.84;5262037;28;20033;-78
2023/08/20 11:35:03;;;;;;;7.18;2.03;;;;;;;37.21;23.48;102079.06;5262021;28;20029;-77
2023/08/20 11:37:35;;;;;;;3.15;1.60;;;;;;;38.01;22.78;102083.97;5244155;28;20040;-78
2023/08/20 11:40:09;;;;;;;4.45;1.60;;;;;;;37.60;22.53;102081.19;5261865;28;20033;-78
2023/08/20 11:42:41;;;;;;;4.40;2.03;;;;;;;37.18;23.07;102080.19;5261858;28;20051;-78
2023/08/20 11:45:12;;;;;;;2.88;1.77;;;;;;;37.02;22.78;102075.53;5263476;28;20045;-80
2023/08/20 11:47:43;;;;;;;4.03;1.75;;;;;;;36.88;24.12;102075.31;5262880;28;20039;-79